Time;durP1;ratioP1;P1;durP2;ratioP2;P2;SDS_P1;SDS_P2;PMS_P1;PMS_P2;Temp;Humidity;BMP_temperature;BMP_pressure;BME280_temperature;BME280_humidity;BME280_pressure;Samples;Min_cycle;Max_cycle;Signal;HPM_P1;HPM_P2
2022/06/07 00:01:08;;;;;;;5.70;5.30;;;16.40;99.90;;;;;;5087947;28;20215;-73
2022/06/07 00:03:34;;;;;;;5.50;5.10;;;16.40;99.90;;;;;;5088812;28;20248;-74
2022/06/07 00:06:01;;;;;;;5.13;4.72;;;16.40;99.90;;;;;;5088006;28;20239;-73
2022/06/07 00:08:28;;;;;;;6.03;5.38;;;16.30;99.90;;;;;;5100403;28;20202;-74
2022/06/07 00:10:53;;;;;;;5.25;4.68;;;16.20;99.90;;;;;;5091863;28;20198;-74
2022/06/07 00:13:19;;;;;;;5.53;4.80;;;16.00;99.90;;;;;;5087253;28;20172;-74
2022/06/07 00:15:45;;;;;;;5.13;4.72;;;16.10;99.90;;;;;;5091028;28;20232;-74
2022/06/07 00:18:11;;;;;;;5.85;5.35;;;16.10;99.90;;;;;;5083148;28;20240;-74
2022/06/07 00:20:38;;;;;;;5.78;5.20;;;16.20;99.90;;;;;;5086613;28;20305;-73
2022/06/07 00:23:07;;;;;;;4.90;4.50;;;16.40;99.90;;;;;;5080993;28;20183;-74
2022/06/07 00:25:33;;;;;;;5.30;4.80;;;16.40;99.90;;;;;;5082302;28;20197;-73
2022/06/07 00:27:59;;;;;;;5.63;5.20;;;16.20;99.90;;;;;;5082351;28;20203;-74
2022/06/07 00:30:26;;;;;;;7.38;5.80;;;16.20;99.90;;;;;;5082896;28;20260;-74
2022/06/07 00:32:51;;;;;;;5.53;5.13;;;16.30;99.90;;;;;;5093791;28;20221;-74
2022/06/07 00:35:17;;;;;;;5.60;5.18;;;16.30;99.90;;;;;;5096544;28;20202;-75
2022/06/07 00:37:43;;;;;;;5.55;5.15;;;16.40;99.90;;;;;;5106030;28;20239;-73
2022/06/07 00:40:09;;;;;;;6.03;5.53;;;16.40;99.90;;;;;;5098107;28;20194;-74
2022/06/07 00:42:35;;;;;;;6.13;5.55;;;16.40;99.90;;;;;;5101152;28;20580;-73
2022/06/07 00:45:01;;;;;;;6.30;5.80;;;16.40;99.90;;;;;;5095654;28;20193;-73
2022/06/07 00:47:29;;;;;;;5.30;4.90;;;16.30;99.90;;;;;;5099690;28;20266;-73
2022/06/07 00:50:23;;;;;;;6.28;5.57;;;16.30;99.90;;;;;;5108587;28;20223;-74
2022/06/07 00:52:49;;;;;;;6.50;6.10;;;16.20;99.90;;;;;;5090627;28;20227;-73
2022/06/07 00:55:14;;;;;;;6.78;6.28;;;16.20;99.90;;;;;;5107934;28;20182;-74
2022/06/07 00:57:41;;;;;;;7.05;6.45;;;16.20;99.90;;;;;;5102168;28;20170;-74
2022/06/07 01:00:10;;;;;;;7.28;6.53;;;16.30;99.90;;;;;;5106039;28;20190;-74
2022/06/07 01:02:36;;;;;;;6.55;5.95;;;16.30;99.90;;;;;;5105465;28;20177;-73
2022/06/07 01:05:02;;;;;;;6.38;5.93;;;16.30;99.90;;;;;;5097425;28;20178;-74
2022/06/07 01:12:56;;;;;;;7.85;7.18;;;16.50;99.90;;;;;;5098748;28;20177;-74
2022/06/07 01:15:22;;;;;;;8.23;7.40;;;16.50;99.90;;;;;;5099065;28;20174;-73
2022/06/07 01:17:47;;;;;;;9.15;8.27;;;16.50;99.90;;;;;;5090943;28;20665;-74
2022/06/07 01:20:14;;;;;;;9.68;8.15;;;16.60;99.90;;;;;;5094136;28;20209;-74
2022/06/07 01:22:39;;;;;;;9.70;8.27;;;16.50;99.90;;;;;;5093387;28;20603;-74
2022/06/07 01:25:06;;;;;;;8.77;7.63;;;16.60;99.90;;;;;;5092882;28;20167;-74
2022/06/07 01:27:31;;;;;;;10.10;9.10;;;16.50;99.90;;;;;;5091115;28;20218;-74
2022/06/07 01:29:57;;;;;;;8.10;7.50;;;16.40;99.90;;;;;;5098959;28;20190;-74
2022/06/07 01:32:23;;;;;;;9.68;8.73;;;16.30;99.90;;;;;;5092693;28;20184;-74
2022/06/07 01:34:48;;;;;;;10.80;8.98;;;16.20;99.90;;;;;;5093958;28;20672;-74
2022/06/07 01:37:18;;;;;;;10.25;9.05;;;16.20;99.90;;;;;;5087450;28;20180;-74
2022/06/07 01:42:27;;;;;;;9.18;8.38;;;16.10;99.90;;;;;;5091772;28;20193;-74
2022/06/07 01:44:53;;;;;;;15.70;10.32;;;16.00;99.90;;;;;;5101477;28;20178;-74
2022/06/07 01:47:24;;;;;;;10.77;8.98;;;16.00;99.90;;;;;;5094152;28;20212;-74
2022/06/07 01:49:50;;;;;;;9.30;8.40;;;15.80;99.90;;;;;;5101605;28;20197;-74
2022/06/07 01:52:17;;;;;;;12.40;8.50;;;15.80;99.90;;;;;;5103553;28;20168;-74
2022/06/07 01:54:43;;;;;;;9.93;8.05;;;15.80;99.90;;;;;;5095938;28;20189;-74
2022/06/07 01:57:09;;;;;;;9.98;9.07;;;15.70;99.90;;;;;;5095365;28;20189;-73
2022/06/07 01:59:38;;;;;;;10.98;9.88;;;15.50;99.90;;;;;;5102223;28;20609;-74
2022/06/07 02:02:05;;;;;;;10.73;9.73;;;15.50;99.90;;;;;;5108109;28;20193;-74
2022/06/07 02:04:31;;;;;;;13.05;9.38;;;15.50;99.90;;;;;;5097278;28;20182;-74
2022/06/07 02:06:57;;;;;;;12.75;10.60;;;15.60;99.90;;;;;;5091295;28;20608;-74
2022/06/07 02:09:22;;;;;;;12.98;11.63;;;15.50;99.90;;;;;;5100474;28;20194;-73
2022/06/07 02:11:48;;;;;;;14.38;11.38;;;15.50;99.90;;;;;;5096809;28;20204;-74
2022/06/07 02:14:14;;;;;;;16.10;11.82;;;15.40;99.90;;;;;;5099592;28;20254;-73
2022/06/07 02:16:40;;;;;;;14.60;12.60;;;15.50;99.90;;;;;;5095682;28;20175;-74
2022/06/07 02:19:06;;;;;;;12.23;11.07;;;15.40;99.90;;;;;;5101243;28;20330;-74
2022/06/07 02:21:32;;;;;;;13.77;12.32;;;15.40;99.90;;;;;;5095161;28;20231;-74
2022/06/07 02:23:58;;;;;;;14.23;11.05;;;15.30;99.90;;;;;;5096797;28;20266;-74
2022/06/07 02:26:28;;;;;;;10.07;9.02;;;15.30;99.90;;;;;;5099118;28;20190;-74
2022/06/07 02:29:19;;;;;;;11.68;10.68;;;15.30;99.90;;;;;;5106215;28;20237;-74
2022/06/07 02:31:51;;;;;;;12.63;11.38;;;15.40;99.90;;;;;;5089115;28;20297;-73
2022/06/07 02:34:19;;;;;;;11.68;10.40;;;15.40;99.90;;;;;;5104250;28;20177;-74
2022/06/07 02:36:48;;;;;;;10.68;9.63;;;15.40;99.90;;;;;;5100515;28;20261;-73
2022/06/07 02:39:14;;;;;;;26.20;11.50;;;15.30;99.90;;;;;;5095568;28;20232;-73
2022/06/07 02:41:41;;;;;;;11.57;10.50;;;15.10;99.90;;;;;;5099579;28;20203;-75
2022/06/07 02:44:07;;;;;;;12.35;11.05;;;15.10;99.90;;;;;;5095052;28;20186;-74
2022/06/07 02:46:33;;;;;;;11.18;9.65;;;15.10;99.90;;;;;;5094695;28;20181;-74
2022/06/07 02:48:58;;;;;;;12.52;9.90;;;15.10;99.90;;;;;;5095809;28;20217;-74
2022/06/07 02:51:24;;;;;;;12.32;11.13;;;15.10;99.90;;;;;;5094768;28;20198;-73
2022/06/07 02:53:50;;;;;;;11.18;10.18;;;15.20;99.90;;;;;;5100407;28;20201;-73
2022/06/07 02:56:15;;;;;;;12.63;10.50;;;15.20;99.90;;;;;;5093919;28;20585;-74
2022/06/07 02:58:41;;;;;;;10.82;9.75;;;15.10;99.90;;;;;;5100577;28;20911;-74
2022/06/07 03:01:06;;;;;;;12.75;11.40;;;15.20;99.90;;;;;;5102689;28;20197;-73
2022/06/07 03:03:32;;;;;;;11.02;9.88;;;15.10;99.90;;;;;;5106096;28;20762;-74
2022/06/07 03:05:58;;;;;;;13.45;10.70;;;15.10;99.90;;;;;;5104483;28;20686;-74
2022/06/07 03:08:24;;;;;;;10.65;9.32;;;15.20;99.90;;;;;;5091655;28;20210;-74
2022/06/07 03:10:50;;;;;;;9.07;7.93;;;15.10;99.90;;;;;;5088153;28;20712;-73
2022/06/07 03:13:17;;;;;;;9.32;8.45;;;15.00;99.90;;;;;;5101295;28;20179;-74
2022/06/07 03:15:43;;;;;;;9.38;8.50;;;14.90;99.90;;;;;;5098389;28;20673;-73
2022/06/07 03:18:10;;;;;;;11.13;9.80;;;15.00;99.90;;;;;;5102444;28;20186;-74
2022/06/07 03:20:37;;;;;;;10.80;9.38;;;15.20;99.90;;;;;;5088233;28;20289;-73
2022/06/07 03:23:03;;;;;;;10.52;8.98;;;15.20;99.90;;;;;;5097090;28;20667;-73
2022/06/07 03:25:29;;;;;;;9.57;8.70;;;15.20;99.90;;;;;;5101776;28;20731;-73
2022/06/07 03:27:54;;;;;;;8.88;8.07;;;15.10;99.90;;;;;;5092673;28;20293;-73
2022/06/07 03:30:20;;;;;;;9.80;8.90;;;15.20;99.90;;;;;;5092518;28;20233;-74
2022/06/07 03:32:46;;;;;;;10.65;9.48;;;15.00;99.90;;;;;;5094513;28;20241;-74
2022/06/07 03:35:14;;;;;;;9.27;8.40;;;15.00;99.90;;;;;;5095510;28;20202;-74
2022/06/07 03:37:40;;;;;;;9.10;8.27;;;14.90;99.90;;;;;;5094116;28;20175;-74
2022/06/07 03:40:09;;;;;;;9.60;8.73;;;14.90;99.90;;;;;;5088436;28;20193;-73
2022/06/07 03:42:35;;;;;;;10.88;9.90;;;14.90;99.90;;;;;;5083215;28;20650;-74
2022/06/07 03:45:00;;;;;;;9.00;8.25;;;15.00;99.90;;;;;;5084886;28;20239;-73
2022/06/07 03:47:26;;;;;;;9.23;8.30;;;14.90;99.90;;;;;;5083378;28;20212;-73
2022/06/07 03:49:52;;;;;;;9.07;8.27;;;14.90;99.90;;;;;;5088276;28;20258;-73
2022/06/07 03:52:19;;;;;;;10.98;7.78;;;14.90;99.90;;;;;;5092450;28;20255;-74
2022/06/07 03:54:45;;;;;;;10.43;8.85;;;14.90;99.90;;;;;;5087094;28;20202;-74
2022/06/07 03:57:12;;;;;;;10.13;9.10;;;14.90;99.90;;;;;;5082506;28;20273;-73
2022/06/07 03:59:38;;;;;;;9.63;8.25;;;15.00;99.90;;;;;;5083761;28;20592;-74
2022/06/07 04:02:05;;;;;;;10.05;8.65;;;14.90;99.90;;;;;;5082093;28;20567;-73
2022/06/07 04:04:31;;;;;;;7.90;7.18;;;14.90;99.90;;;;;;5080675;28;20231;-74
2022/06/07 04:09:41;;;;;;;17.65;7.78;;;14.80;99.90;;;;;;5083763;28;20236;-74
2022/06/07 04:12:12;;;;;;;7.85;6.97;;;14.90;99.90;;;;;;5084065;28;20281;-73
2022/06/07 04:14:39;;;;;;;9.45;8.45;;;14.90;99.90;;;;;;5082261;28;20171;-73
2022/06/07 04:17:05;;;;;;;9.02;8.20;;;15.00;99.90;;;;;;5081856;28;20175;-72
2022/06/07 04:19:34;;;;;;;8.40;7.63;;;15.00;99.90;;;;;;5082251;28;20194;-73
2022/06/07 04:22:00;;;;;;;9.07;7.63;;;15.00;99.90;;;;;;5082206;28;20198;-73
2022/06/07 04:24:26;;;;;;;8.43;7.38;;;14.90;99.90;;;;;;5086030;28;20185;-73
2022/06/07 04:26:52;;;;;;;12.75;7.50;;;15.00;99.90;;;;;;5082934;28;20179;-73
2022/06/07 04:29:17;;;;;;;7.50;6.80;;;15.10;99.90;;;;;;5078592;28;20211;-74
2022/06/07 04:31:43;;;;;;;7.28;6.65;;;15.00;99.90;;;;;;5083861;28;20292;-74
2022/06/07 04:34:09;;;;;;;7.18;6.55;;;15.10;99.90;;;;;;5089494;28;20179;-74
2022/06/07 04:36:36;;;;;;;7.45;6.85;;;15.20;99.90;;;;;;5088800;28;20665;-74
2022/06/07 04:39:03;;;;;;;6.75;6.25;;;15.30;99.90;;;;;;5085870;28;20174;-74
2022/06/07 04:41:29;;;;;;;7.90;7.10;;;15.10;99.90;;;;;;5084912;28;20206;-73
2022/06/07 04:43:56;;;;;;;7.78;7.07;;;15.10;99.90;;;;;;5083314;28;20258;-75
2022/06/07 04:46:22;;;;;;;7.47;6.78;;;15.30;99.90;;;;;;5090406;28;20650;-73
2022/06/07 04:48:49;;;;;;;8.23;7.38;;;15.30;99.90;;;;;;5083272;28;20234;-74
2022/06/07 04:51:18;;;;;;;7.15;6.45;;;15.30;99.90;;;;;;5085284;28;20201;-74
2022/06/07 04:53:44;;;;;;;7.90;7.15;;;15.30;99.90;;;;;;5082101;28;20172;-76
2022/06/07 04:56:14;;;;;;;8.32;7.03;;;15.20;99.90;;;;;;5087125;28;20241;-77
2022/06/07 04:58:40;;;;;;;8.48;7.78;;;15.20;99.90;;;;;;5081392;28;20196;-78
2022/06/07 05:01:25;;;;;;;9.40;8.50;;;15.20;99.90;;;;;;5092424;28;20198;-78
2022/06/07 05:03:52;;;;;;;10.13;7.90;;;15.10;99.90;;;;;;5088504;28;20175;-78
2022/06/07 05:06:32;;;;;;;9.57;8.02;;;15.00;99.90;;;;;;5081593;28;20202;-78
2022/06/07 05:09:01;;;;;;;8.85;7.43;;;15.10;99.90;;;;;;5084473;28;20190;-78
2022/06/07 05:11:28;;;;;;;8.13;7.35;;;15.10;99.90;;;;;;5086974;28;20221;-76
2022/06/07 05:13:58;;;;;;;10.32;7.78;;;15.10;99.90;;;;;;5081209;28;20204;-76
2022/06/07 05:16:24;;;;;;;8.23;7.63;;;15.10;99.90;;;;;;5084491;28;20181;-78
2022/06/07 05:18:51;;;;;;;8.75;7.15;;;15.10;99.90;;;;;;5080643;28;20189;-77
2022/06/07 05:21:21;;;;;;;9.98;8.50;;;15.10;99.90;;;;;;5083080;28;20320;-81
2022/06/07 05:23:47;;;;;;;12.25;8.13;;;15.20;99.90;;;;;;5085739;28;20183;-78
2022/06/07 05:26:18;;;;;;;8.70;7.72;;;15.20;99.90;;;;;;5088463;28;20182;-76
2022/06/07 05:28:44;;;;;;;8.52;7.72;;;15.20;99.90;;;;;;5085630;28;20199;-77
2022/06/07 05:31:11;;;;;;;9.55;8.68;;;15.30;99.90;;;;;;5092449;28;20244;-77
2022/06/07 05:33:37;;;;;;;12.48;8.35;;;15.30;99.90;;;;;;5090131;28;20175;-78
2022/06/07 05:36:03;;;;;;;7.97;7.28;;;15.30;99.90;;;;;;5087409;28;20205;-76
2022/06/07 05:38:29;;;;;;;8.02;7.35;;;15.30;99.90;;;;;;5087238;28;20734;-76
2022/06/07 05:40:55;;;;;;;7.72;7.00;;;15.30;99.90;;;;;;5093673;28;20278;-77
2022/06/07 05:43:21;;;;;;;9.25;8.27;;;15.30;99.90;;;;;;5081065;28;20660;-77
2022/06/07 05:45:48;;;;;;;7.93;7.32;;;15.50;99.90;;;;;;5084168;28;20178;-77
2022/06/07 05:48:14;;;;;;;8.65;7.85;;;15.60;99.90;;;;;;5080684;28;20201;-78
2022/06/07 05:50:41;;;;;;;9.52;8.65;;;15.70;99.90;;;;;;5079534;28;20206;-80
2022/06/07 05:53:07;;;;;;;8.75;7.93;;;15.90;99.90;;;;;;5097600;28;20175;-77
2022/06/07 05:55:32;;;;;;;8.07;7.28;;;16.00;99.90;;;;;;5093583;28;20186;-77
2022/06/07 05:57:58;;;;;;;9.25;8.48;;;16.10;99.90;;;;;;5098786;28;20190;-76
2022/06/07 06:00:24;;;;;;;9.73;8.77;;;16.20;99.90;;;;;;5092357;28;20214;-76
2022/06/07 06:02:50;;;;;;;9.73;8.93;;;16.40;99.90;;;;;;5103953;28;20181;-76
2022/06/07 06:05:17;;;;;;;7.35;6.75;;;16.50;99.90;;;;;;5099240;28;20181;-77
2022/06/07 06:10:28;;;;;;;7.25;6.75;;;16.50;99.90;;;;;;5083035;28;20198;-76
2022/06/07 06:12:54;;;;;;;8.38;7.57;;;16.70;99.90;;;;;;5092547;28;20544;-77
2022/06/07 06:15:21;;;;;;;7.80;7.10;;;16.70;99.90;;;;;;5089120;28;20178;-77
2022/06/07 06:17:47;;;;;;;8.25;7.55;;;16.60;99.90;;;;;;5084546;28;20637;-77
2022/06/07 06:20:13;;;;;;;7.93;7.15;;;16.60;99.90;;;;;;5092603;28;20210;-78
2022/06/07 06:22:39;;;;;;;7.47;6.78;;;16.60;99.90;;;;;;5091812;28;20654;-77
2022/06/07 06:25:06;;;;;;;8.43;7.63;;;16.50;99.90;;;;;;5091183;28;20257;-77
2022/06/07 06:27:32;;;;;;;7.53;6.82;;;16.50;99.90;;;;;;5093754;28;20193;-76
2022/06/07 06:29:58;;;;;;;6.95;6.22;;;16.60;99.90;;;;;;5089431;28;20182;-77
2022/06/07 06:32:24;;;;;;;7.25;6.00;;;16.70;99.90;;;;;;5090857;28;20184;-76
2022/06/07 06:34:50;;;;;;;4.97;4.60;;;16.80;99.90;;;;;;5087927;28;20179;-81
2022/06/07 06:37:16;;;;;;;6.47;4.85;;;16.70;99.90;;;;;;5087624;28;20247;-77
2022/06/07 06:39:42;;;;;;;5.18;4.70;;;16.70;99.90;;;;;;5082749;28;20569;-77
2022/06/07 06:42:08;;;;;;;4.75;4.45;;;17.00;99.90;;;;;;5088190;28;20299;-77
2022/06/07 06:44:34;;;;;;;4.63;4.30;;;17.10;99.90;;;;;;5089899;28;20206;-78
2022/06/07 06:47:01;;;;;;;3.50;3.20;;;17.20;99.90;;;;;;5090269;28;20202;-76
2022/06/07 06:49:27;;;;;;;4.45;4.05;;;17.50;99.90;;;;;;5086304;28;20221;-76
2022/06/07 06:51:53;;;;;;;4.22;3.90;;;17.60;99.90;;;;;;5086504;28;20206;-74
2022/06/07 06:54:19;;;;;;;3.90;3.60;;;17.70;99.90;;;;;;5084960;28;20621;-74
2022/06/07 06:56:47;;;;;;;7.68;3.83;;;18.20;99.90;;;;;;5089825;28;20180;-74
2022/06/07 06:59:14;;;;;;;4.07;3.78;;;18.20;99.90;;;;;;5089913;28;20228;-74
2022/06/07 07:01:41;;;;;;;4.43;3.92;;;18.60;99.90;;;;;;5091758;28;20285;-72
2022/06/07 07:04:13;;;;;;;4.15;3.95;;;18.70;99.90;;;;;;5092908;28;20196;-73
2022/06/07 07:06:39;;;;;;;4.55;4.30;;;18.70;99.90;;;;;;5091265;28;20190;-72
2022/06/07 07:09:07;;;;;;;4.00;3.80;;;19.10;99.90;;;;;;5094530;28;20213;-71
2022/06/07 07:11:38;;;;;;;4.20;4.00;;;19.30;99.90;;;;;;5094375;28;20214;-72
2022/06/07 07:14:08;;;;;;;3.33;3.00;;;19.70;99.90;;;;;;5089836;28;20190;-76
2022/06/07 07:16:38;;;;;;;2.85;2.53;;;19.70;99.90;;;;;;5090621;28;20185;-72
2022/06/07 07:19:04;;;;;;;2.80;2.60;;;19.60;99.90;;;;;;5093193;28;20229;-72
2022/06/07 07:21:33;;;;;;;3.25;3.05;;;19.90;99.90;;;;;;5088733;28;20202;-73
2022/06/07 07:24:00;;;;;;;3.55;3.30;;;20.20;99.90;;;;;;5088223;28;20186;-71
2022/06/07 07:26:28;;;;;;;3.83;3.45;;;20.60;99.90;;;;;;5087790;28;20185;-74
2022/06/07 07:28:54;;;;;;;4.35;3.58;;;20.10;99.90;;;;;;5086288;28;20666;-73
2022/06/07 07:31:23;;;;;;;2.88;2.60;;;20.40;99.90;;;;;;5087789;28;20221;-75
2022/06/07 07:33:48;;;;;;;3.13;2.92;;;20.40;99.90;;;;;;5087868;28;20247;-75
2022/06/07 07:36:15;;;;;;;3.15;2.72;;;20.80;99.90;;;;;;5091012;28;20648;-77
2022/06/07 07:38:41;;;;;;;3.03;2.72;;;20.90;99.90;;;;;;5104167;27;20202;-75
2022/06/07 07:41:30;;;;;;;2.78;2.67;;;21.20;99.90;;;;;;5090635;28;20586;-74
2022/06/07 07:43:59;;;;;;;2.75;2.55;;;21.20;99.90;;;;;;5083078;28;20172;-72
2022/06/07 07:46:27;;;;;;;2.88;2.67;;;20.60;99.90;;;;;;5084073;28;20243;-73
2022/06/07 07:48:53;;;;;;;2.83;2.63;;;20.40;99.90;;;;;;5090530;28;20557;-73
2022/06/07 07:51:22;;;;;;;3.50;3.20;;;20.80;99.90;;;;;;5089646;28;20259;-72
2022/06/07 07:53:48;;;;;;;3.00;2.80;;;21.10;99.90;;;;;;5082686;28;20188;-72
2022/06/07 07:56:14;;;;;;;3.75;3.03;;;21.10;99.90;;;;;;5087375;28;20175;-72
2022/06/07 07:58:41;;;;;;;3.20;2.80;;;21.20;99.90;;;;;;5088005;28;20176;-75
2022/06/07 08:01:14;;;;;;;3.40;2.50;;;21.30;99.90;;;;;;5086647;28;20190;-73
2022/06/07 08:03:41;;;;;;;2.70;2.60;;;20.60;99.90;;;;;;5086826;28;20641;-72
2022/06/07 08:06:17;;;;;;;2.67;2.58;;;20.60;99.90;;;;;;5088299;28;20189;-72
2022/06/07 08:08:43;;;;;;;3.85;3.05;;;21.00;99.90;;;;;;5086739;28;20241;-72
2022/06/07 08:11:08;;;;;;;3.30;3.10;;;20.30;99.90;;;;;;5090523;28;20190;-71
2022/06/07 08:13:34;;;;;;;3.50;3.20;;;21.00;99.90;;;;;;5082596;28;20183;-73
2022/06/07 08:16:00;;;;;;;3.05;2.90;;;21.20;99.90;;;;;;5088502;28;20206;-74
2022/06/07 08:18:26;;;;;;;2.85;2.75;;;21.00;99.90;;;;;;5083742;28;20207;-73
2022/06/07 08:20:58;;;;;;;3.75;2.80;;;21.30;99.90;;;;;;5092170;28;20737;-73
2022/06/07 08:23:23;;;;;;;2.40;2.20;;;21.70;99.90;;;;;;5093324;28;20234;-75
2022/06/07 08:25:49;;;;;;;1.85;1.75;;;21.90;99.90;;;;;;5085769;28;20191;-76
2022/06/07 08:28:14;;;;;;;2.25;2.15;;;22.50;99.90;;;;;;5083693;28;20206;-77
2022/06/07 08:30:46;;;;;;;2.42;2.33;;;22.70;99.90;;;;;;5080677;28;20191;-77
2022/06/07 08:38:41;;;;;;;2.17;2.08;;;22.70;99.90;;;;;;5086212;28;20190;-75
2022/06/07 08:41:17;;;;;;;2.30;2.10;;;22.40;99.90;;;;;;5087855;28;20202;-74
2022/06/07 08:43:43;;;;;;;2.47;2.38;;;21.90;99.90;;;;;;5085143;28;20171;-78
2022/06/07 08:46:11;;;;;;;5.57;2.55;;;21.60;99.90;;;;;;5084589;28;20289;-77
2022/06/07 08:48:40;;;;;;;2.97;2.75;;;21.50;99.90;;;;;;5085670;28;20676;-77
2022/06/07 08:51:24;;;;;;;2.50;2.40;;;21.30;99.90;;;;;;5082381;28;20198;-74
2022/06/07 08:53:54;;;;;;;2.90;2.72;;;21.00;99.90;;;;;;5082902;28;20179;-73
2022/06/07 08:56:32;;;;;;;2.50;2.30;;;20.90;99.90;;;;;;5081565;28;20175;-73
2022/06/07 08:59:05;;;;;;;2.90;2.70;;;20.90;99.90;;;;;;5083573;28;20209;-74
2022/06/07 09:01:49;;;;;;;3.10;2.90;;;21.00;99.90;;;;;;5085884;28;20256;-73
2022/06/07 09:04:17;;;;;;;3.10;2.88;;;21.20;99.90;;;;;;5091266;28;20247;-73
2022/06/07 09:06:46;;;;;;;2.85;2.65;;;21.50;99.90;;;;;;5083378;28;20184;-73
2022/06/07 09:09:14;;;;;;;3.63;2.92;;;21.20;99.90;;;;;;5101104;28;20239;-73
2022/06/07 09:14:32;;;;;;;4.15;3.80;;;20.80;99.90;;;;;;5083193;28;20766;-74
2022/06/07 09:17:00;;;;;;;3.83;3.47;;;20.60;99.90;;;;;;5086676;28;20183;-74
2022/06/07 09:19:28;;;;;;;3.72;3.47;;;20.50;99.90;;;;;;5096302;28;20178;-74
2022/06/07 09:21:58;;;;;;;3.67;3.38;;;20.40;99.90;;;;;;5105075;28;20203;-73
2022/06/07 09:24:31;;;;;;;3.38;3.17;;;20.60;99.90;;;;;;5101252;28;20260;-74
2022/06/07 09:27:21;;;;;;;3.38;3.03;;;20.90;99.90;;;;;;5093246;28;20170;-73
2022/06/07 09:30:02;;;;;;;3.65;3.35;;;21.20;99.90;;;;;;5086496;28;20649;-73
2022/06/07 09:32:33;;;;;;;3.45;3.25;;;21.30;99.90;;;;;;5093141;28;20262;-74
2022/06/07 09:35:01;;;;;;;2.92;2.80;;;21.70;99.90;;;;;;5092717;28;20171;-74
2022/06/07 09:37:45;;;;;;;3.47;3.28;;;22.10;99.90;;;;;;5095387;28;20211;-74
2022/06/07 09:40:32;;;;;;;2.97;2.70;;;22.60;99.90;;;;;;5091386;28;20251;-74
2022/06/07 09:43:05;;;;;;;3.30;3.10;;;23.10;99.90;;;;;;5096795;28;20558;-73
2022/06/07 09:45:55;;;;;;;2.92;2.70;;;23.40;99.90;;;;;;5085858;28;20179;-74
2022/06/07 09:48:36;;;;;;;3.20;2.90;;;23.40;99.90;;;;;;5080652;28;20209;-75
2022/06/07 09:51:25;;;;;;;2.75;2.55;;;23.40;99.90;;;;;;5080671;28;20201;-77
2022/06/07 09:54:03;;;;;;;4.95;3.03;;;23.50;99.90;;;;;;5089405;28;20186;-76
2022/06/07 09:56:39;;;;;;;2.75;2.65;;;23.30;99.90;;;;;;5090542;28;20183;-76
2022/06/07 09:59:49;;;;;;;3.67;2.90;;;23.30;99.90;;;;;;5085905;28;20186;-75
2022/06/07 10:02:58;;;;;;;3.53;3.13;;;23.20;99.90;;;;;;5085684;28;20260;-76
2022/06/07 10:05:57;;;;;;;3.58;3.13;;;23.00;99.90;;;;;;5059305;28;20326;-74
2022/06/07 10:08:38;;;;;;;2.90;2.80;;;22.60;99.90;;;;;;5075459;28;20298;-74
2022/06/07 10:11:22;;;;;;;2.83;2.55;;;21.90;99.90;;;;;;5087751;28;20568;-74
2022/06/07 10:14:07;;;;;;;3.10;3.00;;;21.40;99.90;;;;;;5086248;28;20175;-75
2022/06/07 10:16:35;;;;;;;3.20;3.00;;;20.90;99.90;;;;;;5084689;28;20199;-76
2022/06/07 10:19:11;;;;;;;2.03;1.92;;;20.60;99.90;;;;;;5089070;28;20268;-74
2022/06/07 10:21:57;;;;;;;2.35;1.60;;;20.30;99.90;;;;;;5084356;28;20578;-74
2022/06/07 10:24:34;;;;;;;1.88;1.70;;;20.40;99.90;;;;;;5085312;28;20588;-74
2022/06/07 10:27:12;;;;;;;1.73;1.60;;;20.80;99.90;;;;;;5086480;28;20170;-75
2022/06/07 10:29:58;;;;;;;2.00;1.90;;;21.40;99.90;;;;;;5087445;28;20183;-75
2022/06/07 10:32:39;;;;;;;2.33;1.95;;;22.00;99.90;;;;;;5084870;28;20626;-76
2022/06/07 10:35:20;;;;;;;2.65;2.50;;;22.20;99.90;;;;;;5089852;28;20622;-74
2022/06/07 10:38:07;;;;;;;1.98;1.88;;;22.50;99.90;;;;;;5089672;28;20265;-77
2022/06/07 10:40:57;;;;;;;1.58;1.45;;;22.90;99.90;;;;;;5078191;28;20255;-75
2022/06/07 10:43:38;;;;;;;1.30;1.27;;;23.80;99.90;;;;;;5091278;28;20197;-75
2022/06/07 10:46:10;;;;;;;1.25;1.20;;;24.90;99.90;;;;;;5094429;28;20545;-76
2022/06/07 10:48:42;;;;;;;1.10;1.00;;;25.50;99.90;;;;;;5091869;28;20199;-75
2022/06/07 10:54:05;;;;;;;1.40;1.30;;;25.90;99.90;;;;;;5088664;28;20232;-76
2022/06/07 10:56:35;;;;;;;3.90;1.38;;;25.80;99.90;;;;;;5096776;28;20705;-76
2022/06/07 10:59:07;;;;;;;1.85;1.33;;;25.50;99.90;;;;;;5094858;28;20278;-76
2022/06/07 11:01:45;;;;;;;1.40;1.30;;;25.40;99.90;;;;;;5087201;28;20199;-76
2022/06/07 11:10:17;;;;;;;1.38;1.02;;;25.10;99.90;;;;;;5097240;28;20249;-77
2022/06/07 11:12:50;;;;;;;0.70;0.70;;;25.40;99.90;;;;;;5083322;28;20159;-75
2022/06/07 11:15:36;;;;;;;1.02;0.98;;;26.20;97.10;;;;;;5086867;28;20649;-74
2022/06/07 11:18:08;;;;;;;0.95;0.85;;;27.40;95.40;;;;;;5082583;28;20577;-74
2022/06/07 11:20:36;;;;;;;0.73;0.70;;;28.70;91.60;;;;;;5083029;28;20682;-75
2022/06/07 11:23:29;;;;;;;0.70;0.70;;;30.40;80.20;;;;;;5088333;28;20182;-74
2022/06/07 11:26:07;;;;;;;1.27;0.77;;;31.50;71.60;;;;;;5087770;28;20600;-76
2022/06/07 11:28:39;;;;;;;0.93;0.90;;;32.20;69.10;;;;;;5092379;28;20219;-77
2022/06/07 11:31:23;;;;;;;1.33;1.08;;;32.60;68.30;;;;;;5090837;28;20760;-74
2022/06/07 11:33:54;;;;;;;1.08;1.05;;;33.30;61.90;;;;;;5093790;28;20174;-73
2022/06/07 11:36:34;;;;;;;0.85;0.85;;;33.60;60.30;;;;;;5082196;28;20182;-75
2022/06/07 11:39:21;;;;;;;5.00;1.02;;;32.50;59.70;;;;;;5084447;28;20188;-73
2022/06/07 11:41:53;;;;;;;1.38;1.00;;;31.80;60.70;;;;;;5086026;28;20202;-77
2022/06/07 11:44:31;;;;;;;2.15;1.13;;;31.20;62.10;;;;;;5094699;28;20269;-75
2022/06/07 11:47:01;;;;;;;2.35;1.00;;;30.50;67.20;;;;;;5086059;28;20175;-75
2022/06/07 11:49:32;;;;;;;1.85;0.80;;;31.00;63.20;;;;;;5095067;28;20201;-79
2022/06/07 11:52:12;;;;;;;1.63;0.68;;;31.40;63.80;;;;;;5093051;28;20199;-80
2022/06/07 11:54:48;;;;;;;1.52;0.70;;;32.00;59.40;;;;;;5092303;28;20238;-78
2022/06/07 11:57:29;;;;;;;0.98;0.98;;;31.70;63.60;;;;;;5090397;28;20641;-80
2022/06/07 12:00:19;;;;;;;0.77;0.70;;;31.80;58.80;;;;;;5101202;28;20198;-80
2022/06/07 12:02:57;;;;;;;0.98;0.90;;;31.80;60.50;;;;;;5088442;28;20265;-80
2022/06/07 12:05:28;;;;;;;0.80;0.80;;;32.50;57.40;;;;;;5092999;28;20584;-80
2022/06/07 12:07:59;;;;;;;0.70;0.70;;;33.90;55.00;;;;;;5088184;28;20727;-75
2022/06/07 12:10:33;;;;;;;1.55;0.95;;;35.20;54.60;;;;;;5094087;28;20703;-77
2022/06/07 12:13:01;;;;;;;0.50;0.50;;;35.20;52.80;;;;;;5084752;28;20738;-73
2022/06/07 12:15:31;;;;;;;1.80;0.70;;;35.90;51.50;;;;;;5095333;28;20178;-78
2022/06/07 12:18:05;;;;;;;0.95;0.70;;;36.30;50.70;;;;;;5095992;28;20181;-75
2022/06/07 12:20:35;;;;;;;0.40;0.40;;;35.20;51.20;;;;;;5091029;28;20238;-73
2022/06/07 12:23:18;;;;;;;0.32;0.32;;;34.60;50.30;;;;;;5093546;28;20178;-72
2022/06/07 12:26:08;;;;;;;0.90;0.65;;;34.50;49.60;;;;;;5098575;28;20177;-72
2022/06/07 12:28:38;;;;;;;1.17;0.63;;;33.50;53.10;;;;;;5087056;28;20762;-73
2022/06/07 12:31:15;;;;;;;2.10;0.93;;;33.50;53.70;;;;;;5097267;28;20675;-74
2022/06/07 12:33:50;;;;;;;0.63;0.52;;;34.70;49.30;;;;;;5095687;28;20613;-74
2022/06/07 12:36:23;;;;;;;1.08;0.47;;;35.50;48.30;;;;;;5098530;28;20268;-74
2022/06/07 12:38:50;;;;;;;0.40;0.40;;;35.80;48.60;;;;;;5089059;28;20748;-75
2022/06/07 12:41:27;;;;;;;1.70;0.68;;;36.10;48.10;;;;;;5090826;28;20233;-72
2022/06/07 12:43:58;;;;;;;2.30;0.90;;;37.20;47.90;;;;;;5097324;28;20276;-72
2022/06/07 12:46:25;;;;;;;1.40;0.80;;;39.60;43.80;;;;;;5099960;28;20254;-72
2022/06/07 12:48:52;;;;;;;1.17;0.50;;;39.70;43.80;;;;;;5098896;28;20233;-72
2022/06/07 12:51:35;;;;;;;0.65;0.63;;;38.70;46.50;;;;;;5084317;28;20202;-71
2022/06/07 12:54:22;;;;;;;0.45;0.45;;;39.60;44.10;;;;;;5092360;28;20188;-74
2022/06/07 12:56:51;;;;;;;0.55;0.55;;;42.20;40.70;;;;;;5088786;28;20570;-75
2022/06/07 12:59:41;;;;;;;1.55;0.30;;;42.60;39.50;;;;;;5097054;28;20660;-74
2022/06/07 13:02:17;;;;;;;1.20;0.32;;;44.70;36.00;;;;;;5083081;28;20220;-71
2022/06/07 13:04:57;;;;;;;1.25;0.52;;;45.90;36.10;;;;;;5094008;28;20680;-71
2022/06/07 13:07:51;;;;;;;1.65;0.60;;;45.70;35.70;;;;;;5099794;28;20177;-72
2022/06/07 13:10:37;;;;;;;0.52;0.52;;;47.20;33.70;;;;;;5075604;28;20217;-72
2022/06/07 13:13:05;;;;;;;1.58;0.50;;;48.30;31.90;;;;;;5089315;28;20190;-74
2022/06/07 13:15:50;;;;;;;2.60;0.80;;;49.00;31.10;;;;;;5089597;28;20174;-72
2022/06/07 13:18:15;;;;;;;0.50;0.50;;;47.60;33.40;;;;;;5088990;28;20275;-74
2022/06/07 13:20:46;;;;;;;1.17;0.50;;;46.30;33.70;;;;;;5093413;28;20210;-73
2022/06/07 13:23:18;;;;;;;1.05;0.57;;;45.50;34.20;;;;;;5084391;28;20273;-72
2022/06/07 13:25:43;;;;;;;0.60;0.57;;;45.50;34.30;;;;;;5095876;28;20185;-75
2022/06/07 13:28:22;;;;;;;0.63;0.57;;;43.70;35.10;;;;;;5096083;28;20205;-75
2022/06/07 13:30:56;;;;;;;1.38;0.50;;;40.60;37.00;;;;;;5089085;28;20681;-72
2022/06/07 13:33:21;;;;;;;1.55;0.60;;;39.10;39.60;;;;;;5092846;28;20178;-71